Time;durP1;ratioP1;P1;durP2;ratioP2;P2;SDS_P1;SDS_P2;PMS_P1;PMS_P2;Temp;Humidity;BMP_temperature;BMP_pressure;BME280_temperature;BME280_humidity;BME280_pressure;Samples;Min_cycle;Max_cycle;Signal;HPM_P1;HPM_P2
2023/04/21 00:00:10;;;;;;;14.30;11.17;;;;;;;5.64;100.00;152810.41;5047025;28;20497;-84
2023/04/21 00:02:40;;;;;;;15.73;12.83;;;;;;;5.62;100.00;152803.97;5044529;28;20966;-84
2023/04/21 00:05:08;;;;;;;17.23;12.77;;;;;;;5.65;100.00;152813.00;5041858;28;20894;-84
2023/04/21 00:07:36;;;;;;;14.47;11.20;;;;;;;5.63;100.00;152807.84;5051639;28;20506;-84
2023/04/21 00:10:03;;;;;;;17.40;14.20;;;;;;;5.58;100.00;152794.97;5039951;28;20537;-84
2023/04/21 00:12:30;;;;;;;18.77;13.70;;;;;;;5.57;100.00;152792.38;5037715;28;21085;-84
2023/04/21 00:14:58;;;;;;;18.27;14.40;;;;;;;5.52;100.00;152779.47;5047993;28;20467;-84
2023/04/21 00:17:24;;;;;;;16.97;13.80;;;;;;;5.46;100.00;152765.28;5022399;28;21033;-84
2023/04/21 00:19:51;;;;;;;18.40;14.77;;;;;;;5.46;100.00;152764.00;5050161;28;20458;-83
2023/04/21 00:22:18;;;;;;;19.83;16.03;;;;;;;5.45;100.00;152761.44;5037735;28;20466;-83
2023/04/21 00:24:45;;;;;;;23.70;17.97;;;;;;;5.46;100.00;152765.28;5061002;28;20456;-84
2023/04/21 00:27:12;;;;;;;24.20;18.67;;;;;;;5.46;100.00;152764.00;5057092;28;20482;-83
2023/04/21 00:29:39;;;;;;;18.40;14.90;;;;;;;5.45;100.00;152761.44;5045291;28;20843;-83
2023/04/21 00:32:08;;;;;;;18.53;14.63;;;;;;;5.43;100.00;152757.53;5043273;28;20912;-82
2023/04/21 00:34:35;;;;;;;23.13;16.00;;;;;;;5.41;100.00;152751.09;5021804;28;20464;-83
2023/04/21 00:37:02;;;;;;;17.37;14.20;;;;;;;5.50;100.00;152775.63;5029450;28;20907;-83
2023/04/21 00:39:29;;;;;;;17.53;15.00;;;;;;;5.49;100.00;152771.72;5024536;28;20452;-82
2023/04/21 00:41:56;;;;;;;19.10;13.83;;;;;;;5.49;100.00;152771.72;5049897;28;20455;-84
2023/04/21 00:44:22;;;;;;;22.77;15.67;;;;;;;5.47;100.00;152767.88;5048432;28;21087;-84
2023/04/21 00:46:49;;;;;;;21.03;16.43;;;;;;;5.49;100.00;152771.72;5045205;28;20470;-84
2023/04/21 00:49:17;;;;;;;22.27;16.50;;;;;;;5.45;100.00;152761.44;5034082;28;20464;-84
2023/04/21 00:51:43;;;;;;;18.20;14.60;;;;;;;5.46;100.00;152764.00;5041594;28;20459;-84
2023/04/21 00:54:10;;;;;;;20.87;15.60;;;;;;;5.44;100.00;152758.84;5048541;28;20493;-84
2023/04/21 00:56:37;;;;;;;22.77;16.77;;;;;;;5.44;100.00;152758.84;5058727;28;20456;-84
2023/04/21 00:59:04;;;;;;;21.30;15.30;;;;;;;5.47;100.00;152766.59;5047304;28;20494;-84
2023/04/21 01:01:31;;;;;;;25.60;17.77;;;;;;;5.44;100.00;152758.84;5048560;28;20634;-84
2023/04/21 01:04:00;;;;;;;21.30;15.70;;;;;;;5.41;100.00;152752.41;5047332;28;20772;-84
2023/04/21 01:06:31;;;;;;;21.83;16.40;;;;;;;5.40;100.00;152749.81;5025351;28;20479;-84
2023/04/21 01:08:57;;;;;;;20.80;16.90;;;;;;;5.43;100.00;152756.25;5041538;28;21112;-84
2023/04/21 01:11:25;;;;;;;20.93;16.73;;;;;;;5.40;100.00;152748.56;5044764;28;20881;-84
2023/04/21 01:13:52;;;;;;;23.23;16.73;;;;;;;5.36;100.00;152739.50;5048497;28;20467;-84
2023/04/21 01:16:20;;;;;;;20.23;15.47;;;;;;;5.49;100.00;152771.72;5036268;28;20440;-84
2023/04/21 01:18:46;;;;;;;18.60;14.07;;;;;;;5.52;100.00;152779.47;5058561;28;20460;-84
2023/04/21 01:21:13;;;;;;;18.90;14.57;;;;;;;5.44;100.00;152760.13;5038464;28;20452;-84
2023/04/21 01:23:41;;;;;;;20.00;14.80;;;;;;;5.39;100.00;152745.94;5041714;28;20456;-84
2023/04/21 01:26:08;;;;;;;18.93;15.10;;;;;;;5.36;100.00;152738.22;5044902;28;20474;-84
2023/04/21 01:28:36;;;;;;;17.60;13.93;;;;;;;5.31;100.00;152725.31;5029059;28;20479;-84
2023/04/21 01:31:07;;;;;;;20.53;15.27;;;;;;;5.28;100.00;152718.88;5027718;28;20471;-84
2023/04/21 01:33:34;;;;;;;20.57;15.10;;;;;;;5.27;100.00;152716.28;5060063;28;21018;-84
2023/04/21 01:36:01;;;;;;;15.73;13.57;;;;;;;5.27;100.00;152716.28;5039186;28;20451;-84
2023/04/21 01:38:27;;;;;;;18.60;14.03;;;;;;;5.28;100.00;152717.59;5046392;28;20482;-84
2023/04/21 01:40:55;;;;;;;18.07;14.07;;;;;;;5.27;100.00;152715.03;5047512;28;20540;-84
2023/04/21 01:43:24;;;;;;;20.60;15.70;;;;;;;5.21;100.00;152699.56;5038359;28;20467;-84
2023/04/21 01:45:50;;;;;;;20.43;15.57;;;;;;;5.17;100.00;152689.22;5053670;28;20479;-83
2023/04/21 01:48:17;;;;;;;20.00;15.30;;;;;;;5.13;100.00;152680.22;5042669;28;20549;-83
2023/04/21 01:50:44;;;;;;;24.17;18.43;;;;;;;5.09;100.00;152669.88;5026508;28;20440;-83
2023/04/21 01:53:10;;;;;;;23.87;18.60;;;;;;;5.09;100.00;152669.88;5021588;28;20986;-82
2023/04/21 01:55:37;;;;;;;26.77;19.40;;;;;;;5.09;100.00;152668.59;5033266;28;20859;-82
2023/04/21 01:58:09;;;;;;;19.90;16.60;;;;;;;5.06;100.00;152662.16;5031888;28;20463;-83
2023/04/21 02:00:35;;;;;;;24.27;18.10;;;;;;;5.03;100.00;152653.16;5028466;28;20879;-83
2023/04/21 02:03:04;;;;;;;24.87;19.63;;;;;;;5.01;100.00;152647.97;5017977;28;20563;-83
2023/04/21 02:05:31;;;;;;;23.77;17.27;;;;;;;4.99;100.00;152642.81;5044373;28;20514;-83
2023/04/21 02:07:58;;;;;;;26.10;19.87;;;;;;;4.97;100.00;152638.97;5031126;28;20475;-83
2023/04/21 02:10:24;;;;;;;25.03;17.27;;;;;;;4.94;100.00;152631.22;5042403;28;20451;-83
2023/04/21 02:12:51;;;;;;;20.83;16.20;;;;;;;4.87;100.00;152613.22;5038110;28;20774;-83
2023/04/21 02:15:19;;;;;;;25.37;18.77;;;;;;;4.87;100.00;152613.22;5047362;28;20443;-83
2023/04/21 02:17:46;;;;;;;27.00;19.83;;;;;;;4.87;100.00;152613.22;5030765;28;20450;-83
2023/04/21 02:20:12;;;;;;;26.67;17.70;;;;;;;4.88;100.00;152615.75;5039014;28;20943;-83
2023/04/21 02:22:39;;;;;;;21.57;16.43;;;;;;;4.81;100.00;152597.72;5042456;28;20501;-83
2023/04/21 02:25:06;;;;;;;23.57;16.33;;;;;;;4.78;100.00;152591.28;5043196;28;20459;-83
2023/04/21 02:27:33;;;;;;;22.10;16.33;;;;;;;4.78;100.00;152590.00;5034720;28;20526;-83
2023/04/21 02:30:00;;;;;;;22.57;16.90;;;;;;;4.76;100.00;152586.16;5032974;28;20513;-84
2023/04/21 02:32:28;;;;;;;21.70;16.70;;;;;;;4.74;100.00;152579.66;5024874;28;20472;-84
2023/04/21 02:34:54;;;;;;;24.80;18.40;;;;;;;4.69;100.00;152568.06;5019671;28;20645;-84
2023/04/21 02:37:21;;;;;;;26.60;18.67;;;;;;;4.65;100.00;152556.50;5044294;28;20455;-84
2023/04/21 02:39:48;;;;;;;22.47;16.40;;;;;;;4.61;100.00;152547.47;5042598;28;20496;-83
2023/04/21 02:42:14;;;;;;;22.07;16.50;;;;;;;4.64;100.00;152555.19;5030727;28;20467;-84
2023/04/21 02:44:41;;;;;;;24.03;17.67;;;;;;;4.66;100.00;152560.34;5045827;28;20486;-83
2023/04/21 02:47:08;;;;;;;22.97;18.10;;;;;;;4.64;100.00;152553.91;5043136;28;20478;-83
2023/04/21 02:49:40;;;;;;;24.50;16.87;;;;;;;4.65;100.00;152556.50;5045697;28;20463;-83
2023/04/21 02:52:07;;;;;;;27.37;17.00;;;;;;;4.65;100.00;152557.78;5031982;28;20435;-83
2023/04/21 02:54:33;;;;;;;24.67;18.60;;;;;;;4.64;100.00;152553.91;5046700;28;20483;-83
2023/04/21 02:57:00;;;;;;;27.40;18.50;;;;;;;4.63;100.00;152552.59;5027760;28;20978;-83
2023/04/21 02:59:26;;;;;;;29.47;19.97;;;;;;;4.62;100.00;152548.75;5032902;28;20462;-83
2023/04/21 03:01:53;;;;;;;28.33;18.83;;;;;;;4.62;100.00;152550.06;5028507;28;20455;-83
2023/04/21 03:04:19;;;;;;;24.80;17.80;;;;;;;4.62;100.00;152548.75;5042988;28;20487;-83
2023/04/21 03:06:47;;;;;;;26.80;19.13;;;;;;;4.62;100.00;152550.06;5042431;28;20526;-83
2023/04/21 03:09:14;;;;;;;25.27;18.30;;;;;;;4.61;100.00;152547.47;5043613;28;20458;-83
2023/04/21 03:11:40;;;;;;;24.93;18.57;;;;;;;4.72;100.00;152574.50;5044613;28;20456;-83
2023/04/21 03:14:07;;;;;;;27.70;20.00;;;;;;;4.69;100.00;152566.78;5037037;28;20459;-83
2023/04/21 03:16:33;;;;;;;25.03;16.77;;;;;;;4.63;100.00;152552.59;5042903;28;20574;-83
2023/04/21 03:19:01;;;;;;;26.50;18.40;;;;;;;4.63;100.00;152552.59;5043473;28;20452;-84
2023/04/21 03:21:28;;;;;;;27.00;18.37;;;;;;;4.64;100.00;152555.19;5047202;28;20448;-84
2023/04/21 03:23:56;;;;;;;27.60;18.43;;;;;;;4.66;100.00;152560.34;5023812;28;20467;-84
2023/04/21 03:26:23;;;;;;;26.70;18.97;;;;;;;4.58;100.00;152538.47;5037757;28;20467;-84
2023/04/21 03:28:49;;;;;;;22.40;16.90;;;;;;;4.53;100.00;152525.53;5042486;28;20511;-83
2023/04/21 03:31:16;;;;;;;24.60;16.60;;;;;;;4.49;100.00;152515.25;5048333;28;20470;-84
2023/04/21 03:33:42;;;;;;;25.57;18.17;;;;;;;4.49;100.00;152516.56;5059982;28;20455;-84
2023/04/21 03:36:09;;;;;;;24.40;17.80;;;;;;;4.50;100.00;152517.84;5044893;28;20459;-84
2023/04/21 03:38:38;;;;;;;26.47;18.50;;;;;;;4.47;100.00;152511.41;5050472;28;20459;-84
2023/04/21 03:41:06;;;;;;;25.27;18.33;;;;;;;4.40;100.00;152493.34;5039987;28;20460;-83
2023/04/21 03:43:32;;;;;;;23.87;16.73;;;;;;;4.33;100.00;152475.34;5044336;28;20455;-84
2023/04/21 03:45:59;;;;;;;21.50;16.83;;;;;;;4.28;100.00;152462.47;5040893;28;20466;-84
2023/04/21 03:48:27;;;;;;;26.23;18.63;;;;;;;4.22;100.00;152447.00;5048795;28;20690;-84
2023/04/21 03:50:54;;;;;;;25.90;19.23;;;;;;;4.20;100.00;152441.84;5048956;28;20458;-83
2023/04/21 03:53:20;;;;;;;29.73;20.37;;;;;;;4.21;100.00;152445.69;5048794;28;20946;-83
2023/04/21 03:55:47;;;;;;;28.43;18.40;;;;;;;4.24;100.00;152452.13;5050533;28;20483;-84
2023/04/21 03:58:15;;;;;;;25.30;18.00;;;;;;;4.28;100.00;152463.75;5045403;28;20505;-83
2023/04/21 04:00:42;;;;;;;28.97;20.00;;;;;;;4.29;100.00;152465.00;5047331;28;20452;-84
2023/04/21 04:03:09;;;;;;;27.20;18.93;;;;;;;4.32;100.00;152474.03;5039645;28;20475;-82
2023/04/21 04:05:35;;;;;;;28.13;19.60;;;;;;;4.36;100.00;152483.06;5039726;28;20459;-83
2023/04/21 04:08:02;;;;;;;31.17;22.00;;;;;;;4.39;100.00;152489.50;5039795;28;20477;-83
2023/04/21 04:10:28;;;;;;;35.77;23.83;;;;;;;4.41;100.00;152495.94;5047348;28;20485;-82
2023/04/21 04:12:55;;;;;;;31.90;23.70;;;;;;;4.45;100.00;152504.97;5046206;28;20451;-83
2023/04/21 04:15:23;;;;;;;35.70;23.57;;;;;;;4.48;100.00;152513.97;5046359;28;20876;-83
2023/04/21 04:17:49;;;;;;;31.07;21.67;;;;;;;4.50;100.00;152517.84;5045810;28;20494;-83
2023/04/21 04:20:16;;;;;;;32.30;22.53;;;;;;;4.53;100.00;152525.53;5042626;28;20451;-83
2023/04/21 04:22:42;;;;;;;32.00;21.77;;;;;;;4.57;100.00;152537.19;5041007;28;21032;-82
2023/04/21 04:25:09;;;;;;;37.10;25.20;;;;;;;4.56;100.00;152534.59;5038145;28;20471;-83
2023/04/21 04:27:36;;;;;;;36.63;25.33;;;;;;;4.53;100.00;152525.53;5038678;28;20593;-82
2023/04/21 04:30:03;;;;;;;34.00;23.93;;;;;;;4.50;100.00;152519.09;5041860;28;20474;-82
2023/04/21 04:32:32;;;;;;;32.67;22.50;;;;;;;4.57;100.00;152537.19;5043252;28;20466;-83
2023/04/21 04:34:58;;;;;;;37.00;24.63;;;;;;;4.51;100.00;152521.69;5032694;28;20598;-83
2023/04/21 04:37:25;;;;;;;35.70;22.30;;;;;;;4.47;100.00;152511.41;5042028;28;20463;-82
2023/04/21 04:39:53;;;;;;;38.03;23.10;;;;;;;4.47;100.00;152511.41;5044528;28;20459;-82
2023/04/21 04:42:19;;;;;;;36.77;23.10;;;;;;;4.46;100.00;152508.81;5039388;28;20456;-82
2023/04/21 04:44:46;;;;;;;35.27;23.00;;;;;;;4.45;100.00;152506.22;5041563;28;20443;-82
2023/04/21 04:47:13;;;;;;;37.23;22.73;;;;;;;4.43;100.00;152501.09;5041589;28;20455;-82
2023/04/21 04:49:41;;;;;;;33.67;22.63;;;;;;;4.47;100.00;152511.41;5031634;28;20877;-83
2023/04/21 04:52:07;;;;;;;31.77;22.47;;;;;;;4.45;100.00;152506.22;5028988;28;20455;-83
2023/04/21 04:54:34;;;;;;;29.80;23.43;;;;;;;4.39;100.00;152490.81;5030729;28;20487;-83
2023/04/21 04:57:01;;;;;;;34.13;21.80;;;;;;;4.42;100.00;152497.25;5043876;28;20454;-82
2023/04/21 04:59:29;;;;;;;33.03;22.10;;;;;;;4.45;100.00;152506.22;5042662;28;20950;-82
2023/04/21 05:01:56;;;;;;;33.30;22.87;;;;;;;4.45;100.00;152506.22;5040757;28;20858;-82
2023/04/21 05:04:22;;;;;;;29.23;21.40;;;;;;;4.44;100.00;152502.38;5038811;28;20459;-82
2023/04/21 05:06:50;;;;;;;31.00;21.57;;;;;;;4.43;100.00;152501.09;5039877;28;20469;-82
2023/04/21 05:09:17;;;;;;;36.63;22.83;;;;;;;4.52;100.00;152523.00;5041694;28;20483;-83
2023/04/21 05:11:44;;;;;;;29.73;21.07;;;;;;;4.58;100.00;152539.72;5054071;28;20475;-82
2023/04/21 05:14:10;;;;;;;29.77;22.23;;;;;;;4.67;100.00;152562.94;5042461;28;20451;-82
2023/04/21 05:16:37;;;;;;;29.53;20.27;;;;;;;4.64;100.00;152555.19;5055725;28;20452;-82
2023/04/21 05:19:04;;;;;;;32.03;23.10;;;;;;;4.65;100.00;152557.78;5043507;28;20581;-83
2023/04/21 05:21:30;;;;;;;33.67;21.80;;;;;;;4.75;100.00;152582.25;5043060;28;20505;-82
2023/04/21 05:23:59;;;;;;;34.73;21.90;;;;;;;4.79;100.00;152592.59;5045165;28;20470;-82
2023/04/21 05:26:27;;;;;;;31.20;22.60;;;;;;;4.71;100.00;152573.22;5046165;28;20932;-81
2023/04/21 05:28:54;;;;;;;31.80;21.23;;;;;;;4.74;100.00;152580.97;5042931;28;21008;-82
2023/04/21 05:31:20;;;;;;;36.23;22.40;;;;;;;4.74;100.00;152579.66;5040123;28;20661;-82
2023/04/21 05:33:47;;;;;;;30.80;20.53;;;;;;;4.72;100.00;152574.50;5043930;28;20459;-82
2023/04/21 05:36:13;;;;;;;30.47;19.53;;;;;;;4.69;100.00;152566.78;5047196;28;20459;-83
2023/04/21 05:38:40;;;;;;;29.97;21.07;;;;;;;4.62;100.00;152548.75;5056511;28;20510;-83
2023/04/21 05:41:09;;;;;;;32.53;21.57;;;;;;;4.57;100.00;152537.19;5042624;28;20445;-83
2023/04/21 05:43:35;;;;;;;30.57;21.03;;;;;;;4.56;100.00;152533.28;5044041;28;20474;-83
2023/04/21 05:46:02;;;;;;;35.77;22.17;;;;;;;4.55;100.00;152530.72;5038479;28;21152;-83
2023/04/21 05:48:29;;;;;;;32.33;22.47;;;;;;;4.54;100.00;152529.44;5043533;28;20561;-83
2023/04/21 05:50:55;;;;;;;32.37;21.67;;;;;;;4.57;100.00;152537.19;5040049;28;20756;-82
2023/04/21 05:53:23;;;;;;;26.40;18.10;;;;;;;4.56;100.00;152534.59;5041805;28;20466;-83
2023/04/21 05:55:49;;;;;;;28.47;19.60;;;;;;;4.61;100.00;152546.16;5040839;28;20483;-82
2023/04/21 05:58:18;;;;;;;32.63;21.60;;;;;;;4.71;100.00;152573.22;5038535;28;20494;-83
2023/04/21 06:00:45;;;;;;;32.00;19.90;;;;;;;4.67;100.00;152562.94;5034671;28;20460;-82
2023/04/21 06:03:11;;;;;;;32.27;20.10;;;;;;;4.72;100.00;152575.81;5054808;28;20479;-82
2023/04/21 06:05:38;;;;;;;29.70;20.10;;;;;;;4.76;100.00;152586.16;5042189;28;20451;-83
2023/04/21 06:08:06;;;;;;;34.90;22.00;;;;;;;4.84;100.00;152605.47;5039910;28;20479;-83
2023/04/21 06:10:36;;;;;;;35.33;21.77;;;;;;;4.91;100.00;152624.78;5024674;28;20482;-83
2023/04/21 06:13:03;;;;;;;29.80;18.83;;;;;;;4.96;100.00;152635.06;5022846;28;20474;-83
2023/04/21 06:15:30;;;;;;;29.10;18.10;;;;;;;4.95;100.00;152633.78;5035801;28;20892;-83
2023/04/21 06:17:57;;;;;;;25.80;19.23;;;;;;;5.03;100.00;152653.16;5036910;28;20502;-83
2023/04/21 06:20:24;;;;;;;31.03;20.90;;;;;;;5.09;100.00;152668.59;5038858;28;20463;-83
2023/04/21 06:22:50;;;;;;;27.87;19.40;;;;;;;5.23;100.00;152706.00;5026650;28;20823;-83
2023/04/21 06:25:17;;;;;;;29.73;20.97;;;;;;;5.36;100.00;152739.50;5041589;28;20463;-83
2023/04/21 06:27:44;;;;;;;31.07;22.00;;;;;;;5.53;100.00;152782.06;5039900;28;20841;-82
2023/04/21 06:30:11;;;;;;;30.00;22.17;;;;;;;5.73;100.00;152832.34;5039413;28;20480;-83
2023/04/21 06:32:39;;;;;;;37.17;24.40;;;;;;;6.00;100.00;152903.34;5042151;28;20451;-83
2023/04/21 06:35:06;;;;;;;31.20;22.60;;;;;;;6.30;100.00;152979.41;5043011;28;20461;-83
2023/04/21 06:37:32;;;;;;;38.03;22.27;;;;;;;6.46;100.00;153019.47;5040250;28;20472;-83
2023/04/21 06:39:59;;;;;;;28.93;21.63;;;;;;;6.42;100.00;153009.13;5036134;28;20478;-83
2023/04/21 06:42:25;;;;;;;25.77;18.47;;;;;;;6.44;100.00;153014.28;5023924;28;21286;-83
2023/04/21 06:44:55;;;;;;;26.87;18.97;;;;;;;6.47;100.00;153023.31;5039512;28;20541;-83
2023/04/21 06:47:21;;;;;;;25.63;18.13;;;;;;;6.47;100.00;153023.31;5055711;28;20467;-83
2023/04/21 06:49:49;;;;;;;23.73;17.07;;;;;;;6.51;100.00;153032.38;5035681;28;20488;-83
2023/04/21 06:52:16;;;;;;;21.97;16.80;;;;;;;6.58;100.00;153050.41;5020705;28;20452;-83
2023/04/21 06:54:43;;;;;;;22.97;15.93;;;;;;;6.68;100.00;153076.22;5036779;28;20471;-83
2023/04/21 06:57:10;;;;;;;25.30;16.93;;;;;;;6.73;100.00;153089.13;5038416;28;20548;-83
2023/04/21 06:59:37;;;;;;;21.13;15.70;;;;;;;6.74;100.00;153093.03;5028461;28;20455;-83
2023/04/21 07:02:09;;;;;;;20.60;14.67;;;;;;;6.74;100.00;153091.72;5044112;28;20455;-83
2023/04/21 07:04:36;;;;;;;19.47;14.67;;;;;;;6.72;100.00;153086.56;5038839;28;20924;-83
2023/04/21 07:07:04;;;;;;;19.70;14.80;;;;;;;6.82;100.00;153111.06;5040647;28;20500;-81
2023/04/21 07:09:32;;;;;;;17.60;14.23;;;;;;;6.79;100.00;153104.63;5040160;28;20984;-82
2023/04/21 07:11:59;;;;;;;26.10;15.83;;;;;;;6.82;100.00;153112.38;5036061;28;20464;-81
2023/04/21 07:14:26;;;;;;;19.03;15.50;;;;;;;6.89;100.00;153130.44;5035097;28;20960;-82
2023/04/21 07:16:53;;;;;;;19.70;15.63;;;;;;;6.95;100.00;153145.94;5036007;28;20459;-82
2023/04/21 07:19:20;;;;;;;22.90;17.03;;;;;;;7.12;100.00;153188.56;5038482;28;20459;-81
2023/04/21 07:21:46;;;;;;;21.67;16.83;;;;;;;7.32;100.00;153240.19;5039499;28;20447;-82
2023/04/21 07:24:14;;;;;;;21.40;16.50;;;;;;;7.46;100.00;153276.34;5035635;28;20787;-82
2023/04/21 07:26:41;;;;;;;22.73;15.70;;;;;;;7.57;100.00;153304.72;5043864;28;20852;-82
2023/04/21 07:29:07;;;;;;;18.53;14.63;;;;;;;7.62;100.00;153316.41;5044893;28;20501;-82
2023/04/21 07:31:34;;;;;;;21.93;15.83;;;;;;;7.73;100.00;153346.06;5037822;28;20448;-82
2023/04/21 07:34:00;;;;;;;17.07;14.07;;;;;;;7.76;100.00;153352.53;5052531;28;20460;-83
2023/04/21 07:36:44;;;;;;;15.37;11.73;;;;;;;7.80;100.00;153364.19;5040792;28;20512;-83
2023/04/21 07:39:11;;;;;;;16.33;12.77;;;;;;;8.04;100.00;153423.63;5042547;28;21315;-83
2023/04/21 07:41:39;;;;;;;16.17;13.10;;;;;;;8.19;100.00;153463.66;5013035;28;20460;-83
2023/04/21 07:44:05;;;;;;;15.10;11.50;;;;;;;8.30;100.00;153490.84;5036666;28;21142;-83
2023/04/21 07:46:32;;;;;;;15.10;11.40;;;;;;;8.53;100.00;153550.28;5039808;28;20450;-83
2023/04/21 07:48:59;;;;;;;14.40;11.37;;;;;;;8.62;100.00;153572.28;5039127;28;20489;-83
2023/04/21 07:51:27;;;;;;;13.60;10.93;;;;;;;8.63;100.00;153576.13;5057162;28;21000;-83
2023/04/21 07:53:54;;;;;;;13.80;10.90;;;;;;;8.78;100.00;153614.97;5040901;28;21052;-83
2023/04/21 07:56:21;;;;;;;14.00;11.00;;;;;;;8.97;100.00;153664.09;5034009;28;20486;-83
2023/04/21 07:58:49;;;;;;;12.60;10.97;;;;;;;9.18;100.00;153717.13;5054435;28;20540;-83
2023/04/21 08:01:15;;;;;;;15.07;10.80;;;;;;;9.42;100.00;153779.22;5017526;28;20456;-83
2023/04/21 08:03:42;;;;;;;10.87;9.17;;;;;;;9.58;100.00;153819.31;5036278;28;20461;-83
2023/04/21 08:06:08;;;;;;;12.10;10.40;;;;;;;9.80;100.00;153876.22;5053241;28;20887;-83
2023/04/21 08:08:39;;;;;;;13.03;10.87;;;;;;;10.15;100.00;153965.56;5039660;28;20469;-84
2023/04/21 08:11:05;;;;;;;11.77;10.07;;;;;;;10.49;100.00;154053.59;5020453;28;20982;-83
2023/04/21 08:13:32;;;;;;;13.30;11.90;;;;;;;10.75;100.00;154119.66;5040178;28;20523;-83
2023/04/21 08:16:00;;;;;;;13.23;10.93;;;;;;;10.86;100.00;154149.41;5039983;28;20817;-84
2023/04/21 08:18:26;;;;;;;12.40;8.87;;;;;;;11.07;100.00;154202.50;5041383;28;20892;-83
2023/04/21 08:20:56;;;;;;;12.90;10.63;;;;;;;11.44;100.00;154297.06;5029189;28;20855;-84
2023/04/21 08:23:22;;;;;;;10.50;9.13;;;;;;;11.61;96.46;154341.16;5044325;28;20514;-84
2023/04/21 08:25:49;;;;;;;11.00;9.47;;;;;;;11.65;93.32;154350.22;5042078;28;20797;-83
2023/04/21 08:28:15;;;;;;;13.17;10.77;;;;;;;11.75;96.92;154376.19;5060362;28;20963;-84
2023/04/21 08:30:42;;;;;;;12.83;10.40;;;;;;;11.87;97.45;154408.56;5042510;28;20463;-84
2023/04/21 08:33:12;;;;;;;14.07;10.40;;;;;;;12.17;98.24;154486.38;5057253;28;20505;-84
2023/04/21 08:35:39;;;;;;;12.47;10.17;;;;;;;12.35;94.36;154530.44;5043413;28;20453;-84
2023/04/21 08:38:07;;;;;;;12.50;9.90;;;;;;;12.46;92.69;154558.97;5046709;28;20467;-84
2023/04/21 08:40:35;;;;;;;9.97;8.53;;;;;;;12.53;88.73;154577.09;5062520;28;20853;-84
2023/04/21 08:43:02;;;;;;;9.53;8.50;;;;;;;12.23;87.26;154501.91;5042756;28;20515;-84
2023/04/21 08:45:28;;;;;;;9.90;7.83;;;;;;;12.37;88.07;154536.91;5058131;28;20461;-84
2023/04/21 08:47:55;;;;;;;11.83;8.60;;;;;;;12.27;85.96;154509.69;5045015;28;20479;-85
2023/04/21 08:50:25;;;;;;;8.73;7.33;;;;;;;12.26;86.68;154507.13;5051099;28;20848;-85
2023/04/21 08:52:52;;;;;;;9.23;8.27;;;;;;;12.10;86.49;154466.88;5056574;28;20520;-84
2023/04/21 08:55:18;;;;;;;10.37;8.03;;;;;;;12.10;87.29;154468.19;5043645;28;21055;-85
2023/04/21 08:57:44;;;;;;;9.50;7.73;;;;;;;11.98;84.70;154437.09;5059030;28;20967;-84
2023/04/21 09:00:12;;;;;;;9.93;8.60;;;;;;;11.90;85.24;154415.06;5058723;28;20463;-84
2023/04/21 09:02:53;;;;;;;9.87;8.60;;;;;;;11.93;88.91;154422.84;5055591;28;20453;-84
2023/04/21 09:05:22;;;;;;;11.13;9.87;;;;;;;12.15;89.75;154481.16;5059706;28;20466;-85
2023/04/21 09:07:50;;;;;;;11.00;9.40;;;;;;;12.26;89.98;154508.38;5057888;28;20444;-84
2023/04/21 09:10:22;;;;;;;9.93;8.37;;;;;;;12.40;88.15;154543.41;5040291;28;20485;-85
2023/04/21 09:12:51;;;;;;;8.50;7.37;;;;;;;12.40;86.62;154543.41;5043309;28;20458;-84
2023/04/21 09:15:21;;;;;;;10.83;8.40;;;;;;;12.22;83.98;154498.03;5060676;28;20841;-84
2023/04/21 09:17:54;;;;;;;8.10;6.40;;;;;;;12.05;84.23;154453.94;5041862;28;20469;-84
2023/04/21 09:20:22;;;;;;;6.20;5.60;;;;;;;11.99;83.19;154439.66;5041623;28;22366;-83
2023/04/21 09:22:51;;;;;;;6.97;5.47;;;;;;;11.96;81.42;154431.94;5041210;28;20559;-84
2023/04/21 09:25:19;;;;;;;4.80;4.07;;;;;;;11.87;82.47;154408.56;5056246;28;20892;-84
2023/04/21 09:27:46;;;;;;;7.77;6.00;;;;;;;12.06;84.09;154457.84;5056166;28;20478;-84
2023/04/21 09:30:13;;;;;;;6.90;6.20;;;;;;;12.09;83.68;154465.63;5045985;28;20503;-84
2023/04/21 09:32:40;;;;;;;8.90;8.00;;;;;;;11.97;84.16;154433.19;5039818;28;20456;-84
2023/04/21 09:35:09;;;;;;;8.53;6.67;;;;;;;11.89;90.40;154413.75;5037605;28;20459;-84
2023/04/21 09:37:38;;;;;;;7.50;6.53;;;;;;;11.98;89.96;154437.09;5048697;28;20447;-84
2023/04/21 09:40:07;;;;;;;6.70;5.30;;;;;;;12.10;82.46;154468.19;5038564;28;20472;-84
2023/04/21 09:42:34;;;;;;;6.63;5.03;;;;;;;12.20;85.92;154494.13;5046645;28;20846;-84
2023/04/21 09:45:01;;;;;;;6.87;5.27;;;;;;;12.31;85.76;154521.34;5033276;28;20458;-84
2023/04/21 09:47:29;;;;;;;7.37;5.57;;;;;;;12.42;82.77;154549.88;5040076;28;20534;-84
2023/04/21 09:49:55;;;;;;;6.77;5.53;;;;;;;12.43;84.86;154551.19;5049613;28;20483;-84
2023/04/21 09:52:23;;;;;;;8.10;7.30;;;;;;;12.60;85.06;154595.28;5035006;28;20706;-84
2023/04/21 09:54:52;;;;;;;8.10;6.80;;;;;;;12.79;84.98;154645.84;5052405;28;20484;-83
2023/04/21 09:57:23;;;;;;;10.43;7.47;;;;;;;12.87;85.23;154664.03;5033313;28;20467;-84
2023/04/21 09:59:51;;;;;;;10.17;8.00;;;;;;;12.97;85.07;154691.28;5034563;28;20485;-84
2023/04/21 10:02:19;;;;;;;8.23;6.70;;;;;;;13.03;85.57;154706.81;5021387;28;20458;-84
2023/04/21 10:04:46;;;;;;;8.50;7.33;;;;;;;13.11;85.68;154727.63;5033934;28;21124;-84
2023/04/21 10:07:12;;;;;;;8.87;7.63;;;;;;;12.92;83.15;154678.25;5045741;28;20528;-84
2023/04/21 10:09:41;;;;;;;9.13;7.70;;;;;;;12.61;83.99;154597.84;5034180;28;20477;-84
2023/04/21 10:12:09;;;;;;;8.87;7.97;;;;;;;12.46;83.50;154558.97;5050819;28;20522;-84
2023/04/21 10:14:37;;;;;;;8.87;6.57;;;;;;;12.27;84.47;154511.00;5047743;28;20464;-84
2023/04/21 10:17:05;;;;;;;7.70;6.50;;;;;;;12.23;86.08;154501.91;5032553;28;20458;-84
2023/04/21 10:19:35;;;;;;;8.10;6.23;;;;;;;12.32;87.73;154522.66;5050808;28;20801;-84
2023/04/21 10:22:01;;;;;;;9.00;7.50;;;;;;;12.46;87.28;154560.28;5037408;28;20899;-85
2023/04/21 10:24:29;;;;;;;8.60;7.10;;;;;;;12.97;87.66;154689.97;5038800;28;20498;-84
2023/04/21 10:26:58;;;;;;;9.37;7.83;;;;;;;13.02;84.20;154704.25;5046535;28;20551;-84
2023/04/21 10:29:29;;;;;;;8.83;7.90;;;;;;;13.02;85.16;154704.25;5050031;28;20479;-84
2023/04/21 10:31:57;;;;;;;8.57;7.67;;;;;;;13.16;85.72;154740.59;5035133;28;20814;-84
2023/04/21 10:34:31;;;;;;;8.70;7.40;;;;;;;13.30;84.92;154775.63;5045939;28;20462;-84
2023/04/21 10:37:14;;;;;;;7.77;6.40;;;;;;;13.21;83.65;154753.56;5039114;28;20536;-84
2023/04/21 10:39:47;;;;;;;7.67;6.87;;;;;;;13.29;82.21;154774.31;5038435;28;21016;-84
2023/04/21 10:42:35;;;;;;;8.77;7.53;;;;;;;13.42;83.10;154808.06;5046755;28;20998;-84
2023/04/21 10:45:11;;;;;;;10.00;8.50;;;;;;;13.33;81.35;154784.72;5031148;28;20471;-84
2023/04/21 10:47:43;;;;;;;9.47;8.20;;;;;;;13.37;82.81;154795.09;5047822;28;20454;-84
2023/04/21 10:50:24;;;;;;;7.70;6.53;;;;;;;13.32;82.31;154782.13;5048934;28;20470;-84
2023/04/21 10:52:53;;;;;;;8.23;6.60;;;;;;;13.26;81.76;154766.53;5034543;28;20447;-84
2023/04/21 10:55:21;;;;;;;7.93;6.70;;;;;;;13.51;83.67;154828.81;5036890;28;20515;-85
2023/04/21 10:57:49;;;;;;;12.10;7.97;;;;;;;13.60;81.06;154853.50;5049374;28;20993;-84
2023/04/21 11:00:18;;;;;;;8.10;6.70;;;;;;;13.55;80.41;154840.53;5047557;28;20441;-84
2023/04/21 11:02:53;;;;;;;9.40;8.33;;;;;;;13.47;81.99;154819.78;5051178;28;20992;-84
2023/04/21 11:05:20;;;;;;;10.17;7.40;;;;;;;13.49;81.79;154824.94;5057345;28;20450;-84
2023/04/21 11:07:47;;;;;;;7.83;6.60;;;;;;;13.57;81.05;154844.41;5055886;28;20487;-85
2023/04/21 11:10:13;;;;;;;8.27;6.80;;;;;;;13.64;81.94;154862.56;5055267;28;20471;-85
2023/04/21 11:12:40;;;;;;;8.73;6.90;;;;;;;13.76;82.31;154893.75;5059763;28;20455;-85